Atlanta, GA (30316)

1:02 PM EST on January 25, 2015 (GMT -0500)
East Atlanta Village | Change Station
CLOSE
Current Station
Personal Weather Station
Location: Atlanta, GA
Elevation: 1020 ft
Nearby Weather Stations

Elev 1020 ft 33.74 °N, 84.34 °W | Updated 16 seconds ago

Clear
Clear
55.2 °F
Feels Like 55.2 °F
N
0.9
Wind Variable Wind from South
Gusts 0.9 mph

Today
High -- | Low -- °F
--% Chance of Precip.
Yesterday
High -- | Low -- °F
Precip. -- in
7:38 AM 6:01 PM
Waxing Crescent, 34% visible
Pressure 29.87 in
Visibility 10.0 miles
Clouds Few 25000 ft
Dew Point 40 °F
Humidity 56%
Rainfall 0.05 in
Snow Depth Not available.
UV 4 out of 12
Pollen 2.70 out of 12
Air Quality Not available.
Flu Activity Not available.
METAR KATL 251752Z 21010G20KT 10SM FEW250 13/M01 A2986 RMK AO2 SLP115 T01281006 10128 21006 58027

More Conditions Fewer Conditions

Pressure 29.87 in
Visibility 10.0 miles
Clouds Few 25000 ft
Dew Point 40 °F
Humidity 56%
Rainfall 0.05 in
Snow Depth Not available.
UV 4 out of 12
Pollen 2.70 out of 12
Air Quality Not available.
Flu Activity Not available.
METAR KATL 251752Z 21010G20KT 10SM FEW250 13/M01 A2986 RMK AO2 SLP115 T01281006 10128 21006 58027

More Conditions Fewer Conditions

10-Day Weather Forecast

Almanac

Astronomy

Jan. 25, 2015 Rise Set
Actual Time
Civil Twilight
Nautical Twilight
Astronomical Twilight
Moon
Length of Visible Light
Length of Day
Tomorrow will be .
, % of the Moon is Illuminated

Today's Extremes

State Highs State Lows

Community

WunderPhotos

Upload Photos

1,790,008 photos uploaded!

WunderBlogs® & News

Nearby

Air Quality

  Air Quality AQ Index Pollutant
Not available.

Snow Depth

Station Depth Elevation

Earthquake Activity

City Distance Mag. Time & Date
Minimum magnitude displayed is 2.5.

Coastal Water Temperatures

Place Temperature

Nearby Weather Stations